Time;durP1;ratioP1;P1;durP2;ratioP2;P2;SDS_P1;SDS_P2;PMS_P1;PMS_P2;Temp;Humidity;BMP_temperature;BMP_pressure;BME280_temperature;BME280_humidity;BME280_pressure;Samples;Min_cycle;Max_cycle;Signal;HPM_P1;HPM_P2
2022/05/01 00:02:13;;;;;;;4.20;2.58;;;;;;;7.14;100.00;101803.94;5110508;28;20400;-49
2022/05/01 00:04:38;;;;;;;3.65;2.75;;;;;;;7.10;100.00;101802.56;5105373;28;20400;-48
2022/05/01 00:07:04;;;;;;;7.00;2.67;;;;;;;7.07;100.00;101802.78;5099862;28;20168;-49
2022/05/01 00:09:29;;;;;;;4.03;2.42;;;;;;;7.07;100.00;101805.44;5112472;28;20028;-47
2022/05/01 00:11:54;;;;;;;4.75;2.58;;;;;;;7.08;100.00;101801.84;5102401;28;20448;-47
2022/05/01 00:14:20;;;;;;;3.53;2.70;;;;;;;7.08;100.00;101799.22;5091100;28;20092;-47
2022/05/01 00:16:45;;;;;;;6.03;3.15;;;;;;;7.07;100.00;101797.53;5094912;28;20032;-47
2022/05/01 00:19:11;;;;;;;5.88;3.38;;;;;;;7.06;100.00;101795.88;5098882;28;20038;-50
2022/05/01 00:21:39;;;;;;;5.93;2.97;;;;;;;7.06;100.00;101795.88;5104761;28;20042;-54
2022/05/01 00:24:06;;;;;;;3.58;3.25;;;;;;;7.06;100.00;101795.88;5099388;28;20585;-48
2022/05/01 00:26:32;;;;;;;5.05;2.95;;;;;;;7.06;100.00;101795.03;5105910;28;20024;-48
2022/05/01 00:28:58;;;;;;;2.90;2.58;;;;;;;7.05;100.00;101788.94;5100109;28;20061;-52
2022/05/01 00:31:23;;;;;;;2.80;2.10;;;;;;;7.07;100.00;101786.97;5103469;28;20081;-47
2022/05/01 00:36:33;;;;;;;8.43;4.18;;;;;;;7.11;100.00;101780.47;5107972;28;20537;-47
2022/05/01 00:39:02;;;;;;;3.30;2.97;;;;;;;7.12;100.00;101784.75;5095413;28;20158;-47
2022/05/01 00:41:33;;;;;;;4.25;3.15;;;;;;;7.12;100.00;101779.47;5105605;28;20511;-47
2022/05/01 00:44:06;;;;;;;3.83;2.90;;;;;;;7.10;100.00;101776.16;5117301;28;20027;-50
2022/05/01 00:46:33;;;;;;;4.15;3.03;;;;;;;7.06;100.00;101772.13;5106984;28;20031;-52
2022/05/01 00:49:01;;;;;;;3.10;2.35;;;;;;;7.05;100.00;101773.13;5096721;28;20028;-48
2022/05/01 00:51:28;;;;;;;3.88;2.35;;;;;;;7.04;100.00;101776.69;5106502;28;20038;-51
2022/05/01 00:53:54;;;;;;;4.00;2.70;;;;;;;7.01;100.00;101771.69;5113841;28;20036;-48
2022/05/01 00:56:20;;;;;;;6.07;2.63;;;;;;;6.99;100.00;101768.38;5111963;28;20487;-52
2022/05/01 00:58:48;;;;;;;2.58;1.88;;;;;;;6.98;100.00;101764.06;5102785;28;20031;-47
2022/05/01 01:01:14;;;;;;;4.15;3.58;;;;;;;6.96;100.00;101766.84;5096022;28;20023;-47
2022/05/01 01:03:39;;;;;;;5.78;3.38;;;;;;;6.94;100.00;101757.38;5097637;28;20024;-49
2022/05/01 01:06:05;;;;;;;4.15;2.72;;;;;;;6.91;100.00;101760.31;5104199;28;20606;-49
2022/05/01 01:08:32;;;;;;;3.30;2.97;;;;;;;6.89;100.00;101756.97;5098902;28;20052;-51
2022/05/01 01:10:57;;;;;;;7.43;2.85;;;;;;;6.87;100.00;101764.19;5105106;28;20043;-47
2022/05/01 01:13:26;;;;;;;4.65;3.22;;;;;;;6.85;100.00;101756.41;5098057;28;20032;-48
2022/05/01 01:15:53;;;;;;;5.53;3.00;;;;;;;6.85;100.00;101758.22;5102407;28;20138;-47
2022/05/01 01:18:18;;;;;;;3.08;2.83;;;;;;;6.83;100.00;101753.06;5098610;28;20452;-50
2022/05/01 01:20:44;;;;;;;3.08;2.00;;;;;;;6.81;100.00;101754.16;5108531;28;20119;-51
2022/05/01 01:23:09;;;;;;;4.38;3.38;;;;;;;6.81;100.00;101759.44;5106723;28;20032;-48
2022/05/01 01:25:35;;;;;;;3.13;2.53;;;;;;;6.80;100.00;101760.44;5103271;28;20023;-49
2022/05/01 01:28:03;;;;;;;2.45;2.05;;;;;;;6.78;100.00;101755.28;5107777;28;20089;-49
2022/05/01 01:33:25;;;;;;;3.83;3.05;;;;;;;6.71;100.00;101756.78;5099179;28;20043;-48
2022/05/01 01:35:51;;;;;;;3.13;2.75;;;;;;;6.68;100.00;101747.34;5099018;28;20074;-48
2022/05/01 01:38:17;;;;;;;4.15;2.90;;;;;;;6.65;100.00;101752.06;5100238;28;20407;-48
2022/05/01 01:40:46;;;;;;;6.68;3.20;;;;;;;6.61;100.00;101748.00;5108359;28;20036;-47
2022/05/01 01:43:12;;;;;;;2.88;2.58;;;;;;;6.57;100.00;101746.63;5106107;28;20023;-49
2022/05/01 01:45:38;;;;;;;4.43;3.00;;;;;;;6.51;100.00;101745.38;5090117;28;20030;-50
2022/05/01 01:48:16;;;;;;;3.78;2.67;;;;;;;6.45;100.00;101748.50;5099486;28;20028;-50
2022/05/01 01:50:42;;;;;;;7.95;2.45;;;;;;;6.42;100.00;101735.59;5105929;28;20036;-49
2022/05/01 01:53:09;;;;;;;3.40;2.20;;;;;;;6.40;100.00;101740.16;5090144;28;20039;-49
2022/05/01 01:55:38;;;;;;;2.85;2.25;;;;;;;6.36;100.00;101730.88;5092086;28;20031;-50
2022/05/01 01:58:05;;;;;;;3.45;3.15;;;;;;;6.30;100.00;101733.06;5101741;28;20032;-47
2022/05/01 02:00:31;;;;;;;5.63;3.92;;;;;;;6.27;100.00;101729.84;5081986;28;20115;-52
2022/05/01 02:02:58;;;;;;;3.67;2.80;;;;;;;6.26;100.00;101734.28;5106034;28;20031;-50
2022/05/01 02:05:23;;;;;;;4.20;2.20;;;;;;;6.24;100.00;101725.69;5106243;28;20106;-52
2022/05/01 02:07:49;;;;;;;5.28;2.85;;;;;;;6.24;100.00;101730.97;5101116;28;20139;-50
2022/05/01 02:10:14;;;;;;;2.45;2.15;;;;;;;6.25;100.00;101732.63;5105303;28;20046;-47
2022/05/01 02:12:40;;;;;;;5.65;3.25;;;;;;;6.26;100.00;101733.47;5081353;28;20027;-51
2022/05/01 02:15:06;;;;;;;4.68;3.15;;;;;;;6.24;100.00;101733.59;5108083;28;20020;-48
2022/05/01 02:17:31;;;;;;;7.60;3.20;;;;;;;6.24;100.00;101735.41;5107523;28;20037;-49
2022/05/01 02:19:56;;;;;;;5.18;3.17;;;;;;;6.22;100.00;101732.91;5105493;28;20476;-47
2022/05/01 02:22:22;;;;;;;3.65;3.35;;;;;;;6.24;100.00;101732.75;5102233;28;20482;-47
2022/05/01 02:24:48;;;;;;;4.60;2.60;;;;;;;6.26;100.00;101730.84;5108251;28;20400;-47
2022/05/01 02:27:13;;;;;;;3.67;2.65;;;;;;;6.28;100.00;101727.09;5111246;28;20202;-47
2022/05/01 02:29:38;;;;;;;2.78;2.53;;;;;;;6.31;100.00;101726.84;5087055;28;20114;-47
2022/05/01 02:32:04;;;;;;;3.72;2.88;;;;;;;6.36;100.00;101731.72;5109146;28;20062;-46
2022/05/01 02:34:29;;;;;;;2.70;2.40;;;;;;;6.36;100.00;101720.34;5101868;28;20028;-51
2022/05/01 02:36:55;;;;;;;5.55;2.88;;;;;;;6.36;100.00;101720.34;5095545;28;20453;-50
2022/05/01 02:39:22;;;;;;;3.13;2.47;;;;;;;6.42;100.00;101714.53;5099894;28;20055;-48
2022/05/01 02:41:47;;;;;;;3.45;1.98;;;;;;;6.42;100.00;101712.72;5100408;28;20064;-47
2022/05/01 02:44:13;;;;;;;5.25;2.55;;;;;;;6.47;100.00;101715.78;5097044;28;20377;-51
2022/05/01 02:46:38;;;;;;;3.28;1.75;;;;;;;6.48;100.00;101706.09;5119821;28;20339;-49
2022/05/01 02:49:07;;;;;;;3.75;2.30;;;;;;;6.51;100.00;101705.84;5098113;28;20036;-49
2022/05/01 02:51:32;;;;;;;4.63;2.30;;;;;;;6.51;100.00;101705.84;5099390;28;20019;-49
2022/05/01 02:54:02;;;;;;;4.93;2.22;;;;;;;6.52;100.00;101702.22;5106650;28;20028;-48
2022/05/01 02:56:28;;;;;;;2.20;2.00;;;;;;;6.53;100.00;101706.50;5110435;28;20051;-47
2022/05/01 02:58:53;;;;;;;2.72;2.20;;;;;;;6.54;100.00;101701.13;5105873;28;20391;-51
2022/05/01 03:01:18;;;;;;;3.72;2.55;;;;;;;6.53;100.00;101702.09;5103965;28;20075;-51
2022/05/01 03:03:44;;;;;;;2.22;1.85;;;;;;;6.54;100.00;101700.28;5098936;28;20066;-50
2022/05/01 03:06:09;;;;;;;5.72;2.45;;;;;;;6.51;100.00;101688.22;5115579;28;20410;-48
2022/05/01 03:08:35;;;;;;;3.15;2.83;;;;;;;6.52;100.00;101689.88;5103418;28;20494;-49
2022/05/01 03:11:03;;;;;;;7.47;2.45;;;;;;;6.53;100.00;101691.56;5105768;28;20028;-48
2022/05/01 03:13:29;;;;;;;3.83;2.72;;;;;;;6.53;100.00;101695.97;5098854;28;20028;-49
2022/05/01 03:15:54;;;;;;;10.68;2.78;;;;;;;6.54;100.00;101690.56;5111434;28;20019;-50
2022/05/01 03:23:48;;;;;;;2.67;2.10;;;;;;;6.57;100.00;101694.75;5095421;28;20504;-51
2022/05/01 03:26:16;;;;;;;4.05;2.50;;;;;;;6.57;100.00;101691.28;5093646;28;20036;-50
2022/05/01 03:28:43;;;;;;;3.17;2.55;;;;;;;6.55;100.00;101684.31;5092388;28;20028;-47
2022/05/01 03:31:10;;;;;;;5.63;2.75;;;;;;;6.55;100.00;101686.13;5088856;28;20036;-47
2022/05/01 03:33:36;;;;;;;5.63;2.83;;;;;;;6.55;100.00;101673.78;5094771;28;20526;-47
2022/05/01 03:36:06;;;;;;;4.57;3.17;;;;;;;6.55;100.00;101672.97;5095069;28;20030;-47
2022/05/01 03:38:42;;;;;;;6.85;3.70;;;;;;;6.59;100.00;101676.19;5092128;28;20028;-48
2022/05/01 03:41:16;;;;;;;3.95;2.30;;;;;;;6.57;100.00;101673.66;5095738;28;20074;-52
2022/05/01 03:43:42;;;;;;;6.75;2.53;;;;;;;6.53;100.00;101673.13;5094854;28;20423;-49
2022/05/01 03:46:08;;;;;;;7.03;2.95;;;;;;;6.51;100.00;101675.03;5094283;28;20035;-50
2022/05/01 03:48:33;;;;;;;3.70;3.08;;;;;;;6.50;100.00;101673.34;5095887;28;20032;-48
2022/05/01 03:50:59;;;;;;;9.85;2.80;;;;;;;6.47;100.00;101670.16;5097745;28;20039;-49
2022/05/01 03:53:25;;;;;;;3.08;2.63;;;;;;;6.46;100.00;101665.88;5095359;28;20031;-52
2022/05/01 03:55:51;;;;;;;3.25;2.85;;;;;;;6.50;100.00;101664.63;5095965;28;20028;-47
2022/05/01 03:58:17;;;;;;;3.40;2.53;;;;;;;6.53;100.00;101666.97;5100121;28;20495;-47
2022/05/01 04:00:44;;;;;;;2.85;1.90;;;;;;;6.53;100.00;101661.72;5097342;28;20036;-50
2022/05/01 04:03:28;;;;;;;3.75;2.50;;;;;;;6.55;100.00;101665.06;5071165;28;20051;-51
2022/05/01 04:05:54;;;;;;;2.70;1.80;;;;;;;6.57;100.00;101664.94;5097248;28;20091;-51
2022/05/01 04:08:19;;;;;;;2.85;2.20;;;;;;;6.59;100.00;101661.19;5100274;28;20031;-48
2022/05/01 04:10:46;;;;;;;3.15;2.33;;;;;;;6.60;100.00;101662.84;5103093;28;20039;-51
2022/05/01 04:13:12;;;;;;;4.30;2.83;;;;;;;6.63;100.00;101662.56;5097585;28;20035;-51
2022/05/01 04:15:38;;;;;;;3.67;2.10;;;;;;;6.63;100.00;101659.94;5100058;28;20024;-52
2022/05/01 04:18:04;;;;;;;2.67;2.28;;;;;;;6.58;100.00;101654.22;5103773;28;20148;-49
2022/05/01 04:20:30;;;;;;;2.67;2.20;;;;;;;6.58;100.00;101661.31;5095400;28;20575;-47
2022/05/01 04:22:56;;;;;;;3.58;2.70;;;;;;;6.56;100.00;101650.94;5098722;28;20020;-48
2022/05/01 04:25:24;;;;;;;3.28;2.58;;;;;;;6.57;100.00;101668.41;5108774;28;20039;-47
2022/05/01 04:27:57;;;;;;;2.83;2.55;;;;;;;6.58;100.00;101658.69;5111398;28;20032;-48
2022/05/01 04:30:22;;;;;;;3.55;2.78;;;;;;;6.58;100.00;101659.50;5105757;28;20457;-48
2022/05/01 04:32:49;;;;;;;3.63;2.55;;;;;;;6.57;100.00;101657.84;5091823;28;20077;-49
2022/05/01 04:35:54;;;;;;;4.20;2.40;;;;;;;6.58;100.00;101656.88;5101510;28;20027;-51
2022/05/01 04:38:23;;;;;;;3.08;2.00;;;;;;;6.57;100.00;101664.94;5025816;28;20036;-47
2022/05/01 04:40:52;;;;;;;7.10;4.85;;;;;;;6.55;100.00;101660.59;5073606;28;20094;-47
2022/05/01 04:43:29;;;;;;;2.58;1.75;;;;;;;6.58;100.00;101654.22;5094023;28;20024;-50
2022/05/01 04:45:56;;;;;;;3.72;2.22;;;;;;;6.58;100.00;101656.88;5099818;28;20039;-50
2022/05/01 04:48:23;;;;;;;7.90;2.63;;;;;;;6.59;100.00;101652.47;5103470;28;20028;-54
2022/05/01 04:50:49;;;;;;;4.20;3.17;;;;;;;6.59;100.00;101655.09;5096122;28;20042;-49
2022/05/01 04:53:17;;;;;;;3.42;1.95;;;;;;;6.60;100.00;101651.47;5093371;28;20038;-49
2022/05/01 04:55:44;;;;;;;3.10;2.70;;;;;;;6.60;100.00;101657.56;5093119;28;20020;-51
2022/05/01 04:58:11;;;;;;;2.88;2.45;;;;;;;6.64;100.00;101650.25;5104029;28;20443;-47
2022/05/01 05:00:38;;;;;;;3.47;2.50;;;;;;;6.69;100.00;101656.78;5080658;28;20028;-49
2022/05/01 05:03:04;;;;;;;3.40;2.72;;;;;;;6.75;100.00;101650.13;5094150;28;20388;-49
2022/05/01 05:05:31;;;;;;;9.98;4.05;;;;;;;6.77;100.00;101646.38;5104182;28;20239;-51
2022/05/01 05:09:53;;;;;;;3.05;2.45;;;;;;;6.81;100.00;101643.44;5104976;28;20128;-48
2022/05/01 05:10:46;;;;;;;2.08;1.83;;;;;;;6.83;100.00;101647.63;5102311;28;20039;-52
2022/05/01 05:13:12;;;;;;;6.60;2.85;;;;;;;6.87;100.00;101641.09;5106667;28;20019;-48
2022/05/01 05:15:38;;;;;;;4.05;2.33;;;;;;;6.91;100.00;101649.56;5093379;28;20032;-48
2022/05/01 05:18:03;;;;;;;3.38;2.63;;;;;;;6.95;100.00;101643.88;5109606;28;20031;-52
2022/05/01 05:20:29;;;;;;;5.53;3.78;;;;;;;7.00;100.00;101643.47;5104406;28;20111;-47
2022/05/01 05:22:55;;;;;;;7.65;2.55;;;;;;;7.03;100.00;101648.47;5104959;28;20028;-47
2022/05/01 05:25:20;;;;;;;2.95;2.55;;;;;;;7.08;100.00;101640.13;5098256;28;20058;-48
2022/05/01 05:27:46;;;;;;;2.85;2.53;;;;;;;7.11;100.00;101643.31;5103289;28;20153;-48
2022/05/01 05:30:12;;;;;;;4.80;3.20;;;;;;;7.17;100.00;101645.38;5094299;28;20107;-49
2022/05/01 05:32:38;;;;;;;3.42;2.20;;;;;;;7.27;100.00;101644.56;5105318;28;20453;-47
2022/05/01 05:35:04;;;;;;;3.80;3.10;;;;;;;7.32;100.00;101637.03;5107871;28;20019;-48
2022/05/01 05:37:31;;;;;;;2.92;2.58;;;;;;;7.38;100.00;101636.47;5106839;28;20051;-47
2022/05/01 05:39:56;;;;;;;3.25;2.47;;;;;;;7.44;100.00;101635.91;5090713;28;20039;-49
2022/05/01 05:42:21;;;;;;;3.92;2.95;;;;;;;7.52;100.00;101635.22;5096879;28;20028;-50
2022/05/01 05:44:47;;;;;;;3.38;2.33;;;;;;;7.59;100.00;101631.00;5109127;28;20300;-48
2022/05/01 05:47:12;;;;;;;3.17;2.17;;;;;;;7.63;100.00;101635.03;5105121;28;20028;-49
2022/05/01 05:49:38;;;;;;;12.00;3.40;;;;;;;7.69;100.00;101634.44;5090688;28;20027;-49
2022/05/01 05:52:03;;;;;;;3.47;2.85;;;;;;;7.74;100.00;101636.66;5102834;28;20031;-50
2022/05/01 05:54:29;;;;;;;3.40;2.38;;;;;;;7.76;100.00;101635.53;5101263;28;20092;-50
2022/05/01 05:56:55;;;;;;;6.18;3.22;;;;;;;7.79;100.00;101639.69;5105340;28;20036;-49
2022/05/01 05:59:20;;;;;;;6.65;3.45;;;;;;;7.82;100.00;101639.41;5101825;28;20070;-52
2022/05/01 06:01:45;;;;;;;4.25;2.42;;;;;;;7.84;100.00;101637.47;5103666;28;20031;-49
2022/05/01 06:04:11;;;;;;;2.78;2.50;;;;;;;7.89;100.00;101640.50;5102191;28;20034;-50
2022/05/01 06:06:37;;;;;;;2.80;2.15;;;;;;;7.94;100.00;101640.06;5096596;28;20495;-49
2022/05/01 06:09:02;;;;;;;7.30;3.53;;;;;;;7.97;100.00;101642.41;5105587;28;20031;-49
2022/05/01 06:11:28;;;;;;;5.53;3.33;;;;;;;8.04;100.00;101640.84;5107706;28;20457;-49
2022/05/01 06:13:54;;;;;;;4.05;2.45;;;;;;;8.12;100.00;101642.78;5107303;28;20055;-50
2022/05/01 06:16:20;;;;;;;3.65;2.72;;;;;;;8.21;100.00;101639.22;5099051;28;20036;-52
2022/05/01 06:18:45;;;;;;;7.70;3.58;;;;;;;8.30;100.00;101643.66;5098350;28;20107;-47
2022/05/01 06:21:11;;;;;;;11.00;3.10;;;;;;;8.40;100.00;101636.53;5107289;28;20060;-51
2022/05/01 06:23:37;;;;;;;3.63;2.65;;;;;;;8.50;100.00;101634.66;5108249;28;20034;-53
2022/05/01 06:26:04;;;;;;;4.85;2.45;;;;;;;8.62;100.00;101643.22;5088246;28;20456;-47
2022/05/01 06:28:30;;;;;;;4.45;2.80;;;;;;;8.75;100.00;101637.53;5104161;28;20473;-48
2022/05/01 06:30:55;;;;;;;4.03;2.83;;;;;;;8.89;100.00;101637.00;5102964;28;20036;-50
2022/05/01 06:33:22;;;;;;;6.93;3.58;;;;;;;9.02;100.00;101630.50;5109385;28;20028;-51
2022/05/01 06:35:52;;;;;;;5.28;3.70;;;;;;;9.12;100.00;101628.63;5100423;28;20043;-49
2022/05/01 06:38:18;;;;;;;6.45;4.20;;;;;;;9.18;100.00;101628.81;5087834;28;20035;-50
2022/05/01 06:40:44;;;;;;;3.33;2.78;;;;;;;9.23;100.00;101628.34;5084920;28;20071;-48
2022/05/01 06:43:14;;;;;;;4.40;3.60;;;;;;;9.28;100.00;101628.72;5107721;28;20062;-51
2022/05/01 06:45:43;;;;;;;7.80;4.30;;;;;;;9.32;100.00;101622.16;5101935;28;20032;-54
2022/05/01 06:48:10;;;;;;;5.43;3.08;;;;;;;9.37;100.00;101619.88;5093642;28;20421;-53
2022/05/01 06:50:35;;;;;;;4.70;3.13;;;;;;;9.42;100.00;101621.22;5087714;28;20028;-49
2022/05/01 06:53:01;;;;;;;6.50;4.18;;;;;;;9.48;100.00;101617.94;5091299;28;20035;-47
2022/05/01 06:55:26;;;;;;;7.57;3.65;;;;;;;9.56;100.00;101618.00;5090949;28;20055;-49
2022/05/01 06:57:55;;;;;;;9.20;3.70;;;;;;;9.67;100.00;101608.94;5097545;28;20030;-51
2022/05/01 07:00:22;;;;;;;5.70;4.00;;;;;;;9.79;100.00;101605.88;5093180;28;20031;-52
2022/05/01 07:02:49;;;;;;;5.32;3.60;;;;;;;9.90;100.00;101612.69;5092379;28;20109;-51
2022/05/01 07:05:15;;;;;;;4.72;3.58;;;;;;;10.02;100.00;101610.63;5087901;28;20028;-50
2022/05/01 07:07:41;;;;;;;4.47;2.83;;;;;;;10.13;100.00;101610.31;5093221;28;20024;-48
2022/05/01 07:10:08;;;;;;;4.78;3.72;;;;;;;10.25;100.00;101609.03;5086932;28;20034;-49
2022/05/01 07:12:33;;;;;;;5.20;3.45;;;;;;;10.33;100.00;101607.44;5085969;28;20065;-52
2022/05/01 07:14:59;;;;;;;5.57;3.85;;;;;;;10.42;100.00;101612.56;5087331;28;20070;-53
2022/05/01 07:17:24;;;;;;;6.50;3.90;;;;;;;10.52;100.00;101612.44;5094743;28;20023;-49
2022/05/01 07:19:49;;;;;;;7.22;3.72;;;;;;;10.59;100.00;101605.50;5093409;28;20384;-48
2022/05/01 07:22:16;;;;;;;7.60;3.40;;;;;;;10.61;100.00;101600.00;5086273;28;20043;-50
2022/05/01 07:24:42;;;;;;;3.97;3.17;;;;;;;10.62;100.00;101604.34;5102112;28;20028;-51
2022/05/01 07:27:08;;;;;;;9.85;4.32;;;;;;;10.65;100.00;101612.78;5103522;28;20034;-47
2022/05/01 07:29:33;;;;;;;5.40;3.25;;;;;;;10.70;100.00;101613.13;5096494;28;20066;-49
2022/05/01 07:31:58;;;;;;;5.40;3.75;;;;;;;10.77;100.00;101610.66;5093836;28;20035;-49
2022/05/01 07:34:24;;;;;;;5.70;4.15;;;;;;;10.80;100.00;101614.81;5093638;28;20085;-48
2022/05/01 07:36:49;;;;;;;6.18;3.72;;;;;;;10.81;100.00;101613.78;5101002;28;20799;-53
2022/05/01 07:39:14;;;;;;;4.72;3.15;;;;;;;10.78;100.00;101614.13;5094253;28;20077;-51
2022/05/01 07:41:41;;;;;;;9.27;4.07;;;;;;;10.71;100.00;101613.94;5092295;28;20208;-51
2022/05/01 07:44:08;;;;;;;7.47;4.53;;;;;;;10.67;100.00;101620.59;5092716;28;20024;-52
2022/05/01 07:46:34;;;;;;;10.88;5.15;;;;;;;10.68;100.00;101620.41;5098191;28;20036;-49
2022/05/01 07:48:59;;;;;;;11.60;3.92;;;;;;;10.68;100.00;101615.09;5102980;28;20073;-53
2022/05/01 07:51:25;;;;;;;10.98;4.47;;;;;;;10.68;100.00;101624.88;5097055;28;20038;-51
2022/05/01 07:53:50;;;;;;;6.82;4.20;;;;;;;10.65;100.00;101623.38;5086941;28;20054;-50
2022/05/01 07:56:15;;;;;;;10.32;3.55;;;;;;;10.64;100.00;101624.41;5097460;28;20124;-47
2022/05/01 07:58:41;;;;;;;8.95;4.40;;;;;;;10.68;100.00;101614.28;5103031;28;20518;-51
2022/05/01 08:01:07;;;;;;;5.60;3.45;;;;;;;10.70;100.00;101620.25;5085438;28;20055;-49
2022/05/01 08:06:16;;;;;;;6.28;2.95;;;;;;;11.00;100.00;101616.13;5094579;28;20122;-47
2022/05/01 08:08:41;;;;;;;9.02;4.32;;;;;;;11.00;100.00;101621.44;5101536;28;20462;-47
2022/05/01 08:11:08;;;;;;;6.63;3.80;;;;;;;10.94;100.00;101622.09;5098943;28;20350;-48
2022/05/01 08:13:34;;;;;;;6.13;3.80;;;;;;;11.00;100.00;101624.09;5099848;28;20113;-48
2022/05/01 08:16:00;;;;;;;7.93;4.35;;;;;;;11.03;100.00;101602.53;5105586;28;20027;-51
2022/05/01 08:21:09;;;;;;;6.60;4.88;;;;;;;11.00;100.00;101610.84;5091083;28;20419;-48
2022/05/01 08:23:36;;;;;;;6.43;3.92;;;;;;;10.99;100.00;101609.16;5092872;28;20110;-51
2022/05/01 08:26:03;;;;;;;8.32;5.38;;;;;;;10.98;100.00;101610.16;5094353;28;20483;-51
2022/05/01 08:28:36;;;;;;;9.50;5.28;;;;;;;11.06;100.00;101618.13;5098545;28;20039;-50
2022/05/01 08:31:03;;;;;;;6.57;4.90;;;;;;;11.06;100.00;101615.47;5100394;28;20534;-52
2022/05/01 08:33:29;;;;;;;10.93;5.55;;;;;;;11.00;100.00;101615.31;5105221;28;20050;-48
2022/05/01 08:35:54;;;;;;;7.97;4.82;;;;;;;10.91;100.00;101607.31;5096890;28;20485;-53
2022/05/01 08:38:23;;;;;;;6.13;4.30;;;;;;;10.99;100.00;101609.16;5093209;28;20603;-48
2022/05/01 08:40:50;;;;;;;8.73;3.85;;;;;;;11.20;100.00;101611.28;5092104;28;20027;-48
2022/05/01 08:43:17;;;;;;;9.23;4.35;;;;;;;11.40;100.00;101606.47;5100331;28;20304;-50
2022/05/01 08:46:13;;;;;;;11.05;4.88;;;;;;;11.60;100.00;101600.78;5080960;28;20024;-48
2022/05/01 08:49:00;;;;;;;7.45;4.13;;;;;;;11.89;100.00;101605.53;5101855;28;20045;-51
2022/05/01 08:51:30;;;;;;;10.25;4.30;;;;;;;12.15;100.00;101600.75;5095393;28;20042;-53
2022/05/01 08:53:58;;;;;;;5.82;4.25;;;;;;;12.40;100.00;101597.97;5095496;28;20027;-53
2022/05/01 08:56:26;;;;;;;6.32;4.05;;;;;;;12.69;100.00;101596.44;5097791;28;20534;-52
2022/05/01 08:58:52;;;;;;;8.15;3.70;;;;;;;12.99;100.00;101592.88;5092088;28;20020;-50
2022/05/01 09:01:19;;;;;;;6.45;4.60;;;;;;;12.94;100.00;101594.44;5092800;28;20027;-54
2022/05/01 09:03:45;;;;;;;5.47;4.15;;;;;;;12.78;100.00;101606.84;5079149;28;20515;-49
2022/05/01 09:06:11;;;;;;;7.47;3.97;;;;;;;12.64;100.00;101604.94;5098987;28;20043;-49
2022/05/01 09:08:40;;;;;;;5.32;3.72;;;;;;;12.73;100.00;101605.75;5106526;28;20031;-46
2022/05/01 09:13:51;;;;;;;6.25;3.65;;;;;;;12.86;100.00;101604.13;5094275;28;20163;-47
2022/05/01 09:16:16;;;;;;;7.68;4.43;;;;;;;12.86;100.00;101604.13;5101647;28;20039;-48
2022/05/01 09:18:46;;;;;;;5.75;4.07;;;;;;;12.98;100.00;101596.53;5101406;28;20531;-50
2022/05/01 09:21:12;;;;;;;5.40;4.32;;;;;;;12.97;100.00;101610.03;5101392;28;20024;-51
2022/05/01 09:23:45;;;;;;;3.85;3.17;;;;;;;12.76;100.00;101603.53;5098015;28;20461;-49
2022/05/01 09:26:13;;;;;;;5.20;4.00;;;;;;;12.63;100.00;101621.94;5098213;28;20041;-48
2022/05/01 09:29:05;;;;;;;2.80;2.22;;;;;;;12.31;100.00;101609.66;5098484;28;20150;-50
2022/05/01 09:31:43;;;;;;;;;;;;;;;12.10;100.00;101611.06;5094007;28;20051;-51
2022/05/01 09:34:23;;;;;;;3.50;3.10;;;;;;;12.13;100.00;101602.78;5096213;28;20366;-49
2022/05/01 09:36:49;;;;;;;4.70;2.78;;;;;;;12.26;100.00;101606.69;5102104;28;20507;-47
2022/05/01 09:39:23;;;;;;;3.70;2.63;;;;;;;12.27;100.00;101605.69;5094373;28;20034;-50
2022/05/01 09:41:49;;;;;;;3.35;2.85;;;;;;;12.39;100.00;101599.81;5102999;28;20031;-48
2022/05/01 09:44:16;;;;;;;4.70;2.45;;;;;;;12.39;100.00;101605.13;5105769;28;20909;-49
2022/05/01 09:46:45;;;;;;;4.88;2.60;;;;;;;12.18;100.00;101611.06;5092776;28;20032;-49
2022/05/01 09:49:18;;;;;;;7.18;2.67;;;;;;;12.07;100.00;101607.94;5088883;28;20032;-49
2022/05/01 09:51:46;;;;;;;2.58;2.30;;;;;;;12.18;100.00;101602.22;5099897;28;20064;-50
2022/05/01 09:54:22;;;;;;;4.95;3.00;;;;;;;12.44;100.00;101607.25;5095297;28;20453;-48
2022/05/01 09:56:50;;;;;;;5.45;2.90;;;;;;;12.49;100.00;101612.03;5098482;28;20084;-49
2022/05/01 09:59:18;;;;;;;2.47;2.28;;;;;;;12.42;100.00;101610.09;5097318;28;20030;-49
2022/05/01 10:02:02;;;;;;;2.63;1.67;;;;;;;12.47;100.00;101608.72;5094161;28;20071;-49
2022/05/01 10:04:29;;;;;;;3.05;2.00;;;;;;;12.60;100.00;101601.00;5087117;28;20024;-51
2022/05/01 10:06:56;;;;;;;2.50;1.90;;;;;;;12.62;100.00;101601.63;5092830;28;20034;-51
2022/05/01 10:09:27;;;;;;;3.83;2.17;;;;;;;12.57;100.00;101607.50;5099418;28;20586;-51
2022/05/01 10:11:57;;;;;;;3.00;2.03;;;;;;;12.44;100.00;101604.56;5100899;28;20040;-47
2022/05/01 10:14:23;;;;;;;5.30;2.88;;;;;;;12.10;100.00;101602.28;5102140;28;20474;-52
2022/05/01 10:16:50;;;;;;;1.88;1.63;;;;;;;11.89;100.00;101606.34;5097638;28;20028;-50
2022/05/01 10:19:17;;;;;;;4.18;2.55;;;;;;;11.93;100.00;101599.72;5099122;28;20036;-53
2022/05/01 10:21:47;;;;;;;1.63;1.52;;;;;;;11.77;100.00;101605.03;5109216;28;20507;-50
2022/05/01 10:24:14;;;;;;;1.85;1.58;;;;;;;11.72;100.00;101604.72;5099198;28;20046;-51
2022/05/01 10:26:49;;;;;;;1.92;0.95;;;;;;;11.74;100.00;101602.72;5092987;28;20058;-50
2022/05/01 10:33:04;;;;;;;2.08;1.20;;;;;;;11.24;100.00;101611.81;5094654;28;20084;-49
2022/05/01 10:35:45;;;;;;;1.45;1.35;;;;;;;11.21;100.00;101609.50;5099400;28;20657;-50
2022/05/01 10:38:26;;;;;;;1.75;0.98;;;;;;;11.08;100.00;101610.00;5099735;28;20035;-49
2022/05/01 10:40:52;;;;;;;;;;;;;;;11.00;100.00;101610.84;5101337;28;20031;-48
2022/05/01 10:43:21;;;;;;;3.72;0.80;;;;;;;11.02;100.00;101608.00;5103812;28;19927;-50
2022/05/01 10:45:46;;;;;;;2.45;1.25;;;;;;;10.98;100.00;101612.81;5108489;28;20400;-51
2022/05/01 10:48:12;;;;;;;1.77;0.95;;;;;;;10.89;100.00;101609.34;5106089;28;20032;-50
2022/05/01 10:50:38;;;;;;;1.52;1.42;;;;;;;10.77;100.00;101605.34;5095980;28;20122;-46
2022/05/01 10:53:06;;;;;;;1.33;1.05;;;;;;;10.70;100.00;101609.66;5106682;28;20023;-47
2022/05/01 10:55:53;;;;;;;1.42;1.08;;;;;;;10.83;100.00;101611.81;5102001;28;20020;-50
2022/05/01 10:58:29;;;;;;;1.30;1.20;;;;;;;10.92;100.00;101613.50;5100528;28;20077;-47
2022/05/01 11:00:56;;;;;;;1.30;1.20;;;;;;;10.89;100.00;101608.50;5098637;28;20035;-48
2022/05/01 11:03:32;;;;;;;4.47;1.92;;;;;;;10.91;100.00;101609.16;5107341;28;20102;-49
2022/05/01 11:06:04;;;;;;;1.73;1.63;;;;;;;11.03;100.00;101599.06;5099148;28;20338;-49
2022/05/01 11:08:39;;;;;;;;;;;;;;;11.11;100.00;101599.88;5102440;28;20525;-48
2022/05/01 11:11:07;;;;;;;3.38;1.60;;;;;;;11.24;100.00;101598.53;5085082;28;20295;-47
2022/05/01 11:13:36;;;;;;;2.00;1.80;;;;;;;11.23;100.00;101600.38;5101629;28;20032;-49
2022/05/01 11:16:03;;;;;;;2.78;1.75;;;;;;;11.19;100.00;101595.56;5099686;28;20034;-49
2022/05/01 11:18:50;;;;;;;4.80;2.63;;;;;;;11.23;100.00;101597.72;5101981;28;20050;-48
2022/05/01 11:21:24;;;;;;;4.47;3.03;;;;;;;11.26;100.00;101584.09;5085883;28;20077;-48
2022/05/01 11:24:00;;;;;;;6.43;2.28;;;;;;;11.52;100.00;101583.88;5103663;28;20088;-52
2022/05/01 11:26:26;;;;;;;4.85;2.95;;;;;;;11.69;100.00;101583.81;5097536;28;20032;-56
2022/05/01 11:28:56;;;;;;;2.47;2.25;;;;;;;11.75;100.00;101569.84;5102125;28;20504;-56
2022/05/01 11:31:36;;;;;;;5.22;2.85;;;;;;;11.90;100.00;101581.44;5095133;28;20142;-50
2022/05/01 11:34:17;;;;;;;4.30;2.75;;;;;;;11.89;100.00;101579.78;5104956;28;20066;-49
2022/05/01 11:36:53;;;;;;;5.60;2.72;;;;;;;11.79;100.00;101564.00;5091717;28;20028;-51
2022/05/01 11:39:19;;;;;;;2.22;1.63;;;;;;;11.99;100.00;101564.44;5102457;28;20027;-47
2022/05/01 11:41:45;;;;;;;3.83;2.05;;;;;;;12.34;100.00;101567.59;5098145;28;20075;-49
2022/05/01 11:44:22;;;;;;;3.15;1.83;;;;;;;12.34;100.00;101558.75;5102551;28;20031;-49
2022/05/01 11:46:48;;;;;;;2.78;2.03;;;;;;;12.45;100.00;101555.72;5103769;28;20055;-52
2022/05/01 11:49:13;;;;;;;2.60;2.25;;;;;;;12.51;100.00;101551.50;5102315;28;20093;-48